Oushou Maru — JD2052 — position and weather

sailwx.info

Track history (hours):
 
Tides and Currents Weather Stations Pressure Air Temp Water Temp Dewpoint Dewpoint Depression Visibility Wind Speed Wind Dir Waves Ship Positions

Oushou Maru

Last reported at 2018-May-18 08:06 UTC. Time now 2018-May-20 15:49 UTC.
Position N 35°31' E 139°51'.

Length 62 m.

Type: Tanker. MMSI: 431401998.

Date/timePositionNaut miles runAvg speedWind from/ knotsBaromVisibWave heightAir tempDewpointWater temp
2018-May-18 08:06N 35°31' E 139°51'211.4
2018-May-18 07:56N 35°30' E 139°49'4 1.1
2018-May-18 04:14N 35°31' E 139°44'1 3.8
2018-May-18 03:58N 35°31' E 139°46'  
2018-May-15 14:20N 35°30' E 140°00'0 0.0
2018-May-15 13:59N 35°30' E 140°00'0 0.0
2018-May-15 13:29N 35°30' E 140°00'0 0.0
2018-May-15 12:50N 35°30' E 140°00'0 0.0
2018-May-15 12:26N 35°30' E 140°00'0 0.0
2018-May-15 11:59N 35°30' E 140°00'0 0.0
2018-May-15 11:29N 35°30' E 140°00'0 0.0
2018-May-15 10:50N 35°30' E 140°00'0 0.0
2018-May-15 10:29N 35°30' E 140°00'0 0.0
2018-May-15 09:59N 35°30' E 140°00'0 0.0
2018-May-15 09:17N 35°30' E 140°00'0 0.1
2018-May-15 08:56N 35°30' E 140°00'0 0.1
2018-May-15 08:26N 35°30' E 140°00'3 6.5
2018-May-15 08:00N 35°30' E 139°57'611.3
2018-May-15 07:30N 35°30' E 139°50'5 7.5
2018-May-15 06:54N 35°31' E 139°44'0 0.0
2018-May-15 06:30N 35°31' E 139°44'0 0.0
2018-May-15 05:54N 35°31' E 139°44'0 0.0
2018-May-15 04:15N 35°31' E 139°44'0 0.0
2018-May-15 04:00N 35°31' E 139°44'3 5.2
2018-May-15 03:30N 35°30' E 139°48'510.2
2018-May-15 02:59N 35°30' E 139°54'510.5
2018-May-15 02:30N 35°30' E 140°00'2 0.5
2018-May-14 23:05N 35°30' E 140°02'0 0.5
2018-May-14 23:00N 35°30' E 140°02'2 2.8
2018-May-14 22:26N 35°31' E 140°01'0 0.1
2018-May-14 21:53N 35°31' E 140°01'0 0.0
2018-May-14 21:26N 35°31' E 140°01'0 0.0
2018-May-14 20:56N 35°31' E 140°01'0 0.0
2018-May-14 20:29N 35°31' E 140°01'0 0.0
2018-May-14 19:59N 35°31' E 140°01'0 0.0
2018-May-14 19:23N 35°31' E 140°01'0 0.0
2018-May-14 18:56N 35°31' E 140°01'0 0.1
2018-May-14 17:59N 35°31' E 140°01'0 0.0
2018-May-14 17:29N 35°31' E 140°01'0 0.0
2018-May-14 16:50N 35°31' E 140°01'0 0.0
2018-May-14 16:29N 35°31' E 140°01'0 0.1
2018-May-14 15:53N 35°31' E 140°01'0 0.0
2018-May-14 15:14N 35°31' E 140°01'0 0.0
2018-May-14 14:59N 35°31' E 140°01'0 0.0
2018-May-14 14:29N 35°31' E 140°01'0 0.0
2018-May-14 13:59N 35°31' E 140°01'0 0.0
2018-May-14 13:26N 35°31' E 140°01'0 0.0
2018-May-14 12:59N 35°31' E 140°01'0 0.0
2018-May-14 12:26N 35°31' E 140°01'0 0.0
2018-May-14 11:41N 35°31' E 140°01'0 0.0
2018-May-14 11:26N 35°31' E 140°01'0 0.0
2018-May-14 10:56N 35°31' E 140°01'0 0.0
2018-May-14 10:29N 35°31' E 140°01'0 0.0
2018-May-14 09:59N 35°31' E 140°01'0 0.0
2018-May-14 08:35N 35°31' E 140°01'0 0.5
2018-May-14 08:29N 35°31' E 140°01'0 0.1
2018-May-14 07:59N 35°31' E 140°01'0 0.0
2018-May-14 07:26N 35°31' E 140°01'1 2.3
2018-May-14 07:00N 35°32' E 140°02'3 0.9
2018-May-14 03:45N 35°33' E 140°05'0 0.0
2018-May-14 03:08N 35°33' E 140°05'0 3.2
2018-May-14 03:00N 35°33' E 140°05'4 1.1
2018-May-13 23:13N 35°30' E 140°02'1 5.1
2018-May-13 22:59N 35°30' E 140°01'2 4.1
2018-May-13 22:28N 35°32' E 140°00'510.3
2018-May-13 22:00N 35°37' E 139°59'3 0.7
2018-May-13 16:39N 35°41' E 139°59'0 0.0
2018-May-13 12:51N 35°41' E 139°59'0 0.0
2018-May-13 07:45N 35°41' E 139°59'1 2.7
2018-May-13 07:15N 35°39' E 139°59'311.4
2018-May-13 07:00N 35°36' E 139°59'6 8.6
2018-May-13 06:22N 35°31' E 139°58'3 4.2
2018-May-13 05:34N 35°28' E 140°01'0 0.1
2018-May-13 05:28N 35°28' E 140°01'0 0.0
2018-May-13 04:58N 35°28' E 140°01'0 0.0
2018-May-13 04:28N 35°28' E 140°01'0 0.0
2018-May-13 03:58N 35°28' E 140°01'0 0.0
2018-May-13 03:22N 35°28' E 140°01'0 0.2
2018-May-13 02:55N 35°28' E 140°01'1 0.3
2018-May-12 22:57N 35°30' E 140°02'1 2.2
2018-May-12 22:19N 35°30' E 140°00'0 0.0
2018-May-12 21:55N 35°30' E 140°00'0 0.0
2018-May-12 21:28N 35°30' E 140°00'0 0.0
2018-May-12 20:43N 35°30' E 140°00'0 0.0
2018-May-12 20:28N 35°30' E 140°00'0 0.0
2018-May-12 19:49N 35°30' E 140°00'0 0.0
2018-May-12 19:13N 35°30' E 140°00'0 0.0
2018-May-12 18:43N 35°30' E 140°00'0 0.0
2018-May-12 18:22N 35°30' E 140°00'0 0.0
2018-May-12 17:31N 35°30' E 140°00'0 0.0
2018-May-12 17:19N 35°30' E 140°00'0 0.0
2018-May-12 16:55N 35°30' E 140°00'0 0.0
2018-May-12 16:28N 35°30' E 140°00'0 0.0
2018-May-12 15:55N 35°30' E 140°00'0 0.0
2018-May-12 15:25N 35°30' E 140°00'0 0.0
2018-May-12 14:58N 35°30' E 140°00'0 0.0
2018-May-12 14:28N 35°30' E 140°00'0 0.0
2018-May-12 13:58N 35°30' E 140°00'0 0.0
2018-May-12 13:28N 35°30' E 140°00'0 0.0
2018-May-12 12:58N 35°30' E 140°00'0 0.0
2018-May-12 12:25N 35°30' E 140°00'0 0.0
2018-May-12 11:55N 35°30' E 140°00'0 0.0
2018-May-12 11:25N 35°30' E 140°00'0 0.0
2018-May-12 10:52N 35°30' E 140°00'0 0.0
2018-May-12 10:19N 35°30' E 140°00'0 0.0
2018-May-12 09:49N 35°30' E 140°00'0 0.0
2018-May-12 09:22N 35°30' E 140°00'0 0.0
2018-May-12 08:55N 35°30' E 140°00'2 6.0
2018-May-12 08:30N 35°30' E 139°57'611.3
2018-May-12 07:58N 35°30' E 139°50'4 9.2
2018-May-12 07:30N 35°31' E 139°45'0 0.3
2018-May-12 06:59N 35°31' E 139°44'0 0.0
2018-May-12 06:26N 35°31' E 139°44'0 0.0
2018-May-12 05:50N 35°31' E 139°44'0 0.0
2018-May-12 05:29N 35°31' E 139°44'0 0.0
2018-May-12 04:56N 35°31' E 139°44'0 0.0
2018-May-12 04:29N 35°31' E 139°44'0 0.9
2018-May-12 04:00N 35°31' E 139°45'4 7.2
2018-May-12 03:30N 35°30' E 139°49'4 7.5
2018-May-12 03:00N 35°31' E 139°54'4 8.3
2018-May-12 02:30N 35°31' E 139°59'3 0.8
2018-May-11 22:57N 35°30' E 140°02'1 2.6
2018-May-11 22:30N 35°30' E 140°01'0 0.0
2018-May-11 22:00N 35°30' E 140°01'0 0.0
2018-May-11 21:27N 35°30' E 140°01'0 0.1
2018-May-11 20:59N 35°30' E 140°01'510.4
2018-May-11 20:30N 35°29' E 139°55'510.8
2018-May-11 20:00N 35°26' E 139°49'510.8
2018-May-11 19:30N 35°22' E 139°45'5 9.8
2018-May-11 19:00N 35°17' E 139°46'510.6
2018-May-11 18:29N 35°11' E 139°47'510.8
2018-May-11 18:00N 35°06' E 139°45'611.5
2018-May-11 17:29N 35°02' E 139°40'3712.1
2018-May-11 14:25N 34°39' E 139°05'11510.7
2018-May-11 03:39N 34°48' E 136°45'211.7
2018-May-11 03:28N 34°50' E 136°44'511.5
2018-May-11 03:00N 34°55' E 136°42'3 5.7
2018-May-11 02:25N 34°58' E 136°39'0 0.0
2018-May-11 01:55N 34°58' E 136°39'0 0.0
2018-May-11 01:28N 34°58' E 136°39'0 0.0
2018-May-11 00:58N 34°58' E 136°39'0 0.0
2018-May-11 00:25N 34°58' E 136°39'0 0.0
2018-May-10 23:55N 34°58' E 136°39'2 4.4
2018-May-10 23:30N 34°57' E 136°41'4 7.0
2018-May-10 23:00N 34°54' E 136°43'4 7.9
2018-May-10 22:30N 34°50' E 136°45'5 9.3
2018-May-10 22:00N 34°46' E 136°48'510.3
2018-May-10 21:29N 34°42' E 136°51'97 9.6
2018-May-10 11:20N 34°35' E 138°49'5 9.0
2018-May-10 10:50N 34°36' E 138°55'4 9.3
2018-May-10 10:22N 34°38' E 138°59'4 9.6
2018-May-10 09:58N 34°41' E 139°02'710.4
2018-May-10 09:20N 34°46' E 139°07'2710.1
2018-May-10 06:38N 35°03' E 139°33'210.4
2018-May-10 06:25N 35°04' E 139°35'511.7
2018-May-10 05:58N 35°07' E 139°41'611.5
2018-May-10 05:29N 35°11' E 139°45'510.8
2018-May-10 05:00N 35°16' E 139°45'510.8
2018-May-10 04:30N 35°21' E 139°42'510.0
2018-May-10 03:59N 35°26' E 139°45'610.8
2018-May-10 03:28N 35°29' E 139°50'510.4
2018-May-10 03:00N 35°30' E 139°56'5 1.2
2018-May-09 23:07N 35°30' E 140°02'1 3.6
2018-May-09 22:59N 35°30' E 140°01'2 3.3
2018-May-09 22:30N 35°32' E 140°02'5 9.5
2018-May-09 22:00N 35°35' E 140°05'1 2.2
2018-May-09 21:28N 35°36' E 140°06'0 0.0
2018-May-09 20:58N 35°36' E 140°06'0 0.0
2018-May-09 20:31N 35°36' E 140°06'0 0.0
2018-May-09 19:58N 35°36' E 140°06'0 0.0
2018-May-09 19:31N 35°36' E 140°06'0 0.0
2018-May-09 18:58N 35°36' E 140°06'0 0.0
2018-May-09 18:28N 35°36' E 140°06'0 0.0
2018-May-09 18:01N 35°36' E 140°06'0 0.0
2018-May-09 17:31N 35°36' E 140°06'0 0.0
2018-May-09 17:01N 35°36' E 140°06'0 0.0
2018-May-09 16:28N 35°36' E 140°06'0 0.0
2018-May-09 15:58N 35°36' E 140°06'0 0.0
2018-May-09 15:31N 35°36' E 140°06'0 0.0
2018-May-09 14:58N 35°36' E 140°06'0 0.0
2018-May-09 14:28N 35°36' E 140°06'0 0.0
2018-May-09 13:58N 35°36' E 140°06'0 0.0
2018-May-09 13:28N 35°36' E 140°06'0 0.0
2018-May-09 12:58N 35°36' E 140°06'0 0.0
2018-May-09 12:28N 35°36' E 140°06'0 0.0
2018-May-09 12:01N 35°36' E 140°06'0 0.0
2018-May-09 11:31N 35°36' E 140°06'0 0.0
2018-May-09 10:58N 35°36' E 140°06'0 0.0
2018-May-09 10:28N 35°36' E 140°06'0 0.0
2018-May-09 09:58N 35°36' E 140°06'0 0.0
2018-May-09 09:28N 35°36' E 140°06'1 2.1
2018-May-09 09:01N 35°35' E 140°05'510.6
2018-May-09 08:30N 35°33' E 139°59'510.4
2018-May-09 08:00N 35°31' E 139°53'510.1
2018-May-09 07:29N 35°30' E 139°47'2 4.3
2018-May-09 06:58N 35°31' E 139°44'0 0.0
2018-May-09 06:22N 35°31' E 139°44'0 0.0
2018-May-09 05:58N 35°31' E 139°44'0 0.0
2018-May-09 05:28N 35°31' E 139°44'0 0.0
2018-May-09 04:52N 35°31' E 139°44'0 0.0
2018-May-09 04:28N 35°31' E 139°44'0 0.1
2018-May-09 03:57N 35°31' E 139°44'3 6.0
2018-May-09 03:30N 35°30' E 139°48'610.5
2018-May-09 02:55N 35°30' E 139°55'5 1.4
2018-May-08 22:58N 35°30' E 140°02'2 3.9
2018-May-08 22:30N 35°31' E 139°60'0 0.3
2018-May-08 21:52N 35°31' E 139°60'0 0.0
2018-May-08 21:28N 35°31' E 139°60'0 0.0
2018-May-08 20:58N 35°31' E 139°60'0 0.0
2018-May-08 20:28N 35°31' E 139°60'0 0.1
2018-May-08 19:46N 35°31' E 139°60'0 0.0
2018-May-08 19:28N 35°31' E 139°60'0 0.0
2018-May-08 18:49N 35°31' E 139°60'0 0.0
2018-May-08 18:10N 35°31' E 139°60'0 0.0
2018-May-08 17:40N 35°31' E 139°60'0 0.0
2018-May-08 17:22N 35°31' E 139°60'0 0.0
2018-May-08 16:58N 35°31' E 139°60'0 0.0
2018-May-08 16:10N 35°31' E 139°60'0 0.0
2018-May-08 15:46N 35°31' E 139°60'0 0.0
2018-May-08 11:40N 35°31' E 139°60'0 0.0
2018-May-08 08:12N 35°31' E 139°60'  
Track history (hours):
 
Tides and Currents Weather Stations Pressure Air Temp Water Temp Dewpoint Dewpoint Depression Visibility Wind Speed Wind Dir Waves Ship Positions

Oushou Maru

Last reported at 2018-May-18 08:06 UTC. Time now 2018-May-20 15:49 UTC.
Position N 35°31' E 139°51'.

Length 62 m.

Type: Tanker. MMSI: 431401998.

Date/timePositionNaut miles runAvg speedWind from/ knotsBaromVisibWave heightAir tempDewpointWater temp
2018-May-18 08:06N 35°31' E 139°51'211.4
2018-May-18 07:56N 35°30' E 139°49'4 1.1
2018-May-18 04:14N 35°31' E 139°44'1 3.8
2018-May-18 03:58N 35°31' E 139°46'  
2018-May-15 14:20N 35°30' E 140°00'0 0.0
2018-May-15 13:59N 35°30' E 140°00'0 0.0
2018-May-15 13:29N 35°30' E 140°00'0 0.0
2018-May-15 12:50N 35°30' E 140°00'0 0.0
2018-May-15 12:26N 35°30' E 140°00'0 0.0
2018-May-15 11:59N 35°30' E 140°00'0 0.0
2018-May-15 11:29N 35°30' E 140°00'0 0.0
2018-May-15 10:50N 35°30' E 140°00'0 0.0
2018-May-15 10:29N 35°30' E 140°00'0 0.0
2018-May-15 09:59N 35°30' E 140°00'0 0.0
2018-May-15 09:17N 35°30' E 140°00'0 0.1
2018-May-15 08:56N 35°30' E 140°00'0 0.1
2018-May-15 08:26N 35°30' E 140°00'3 6.5
2018-May-15 08:00N 35°30' E 139°57'611.3
2018-May-15 07:30N 35°30' E 139°50'5 7.5
2018-May-15 06:54N 35°31' E 139°44'0 0.0
2018-May-15 06:30N 35°31' E 139°44'0 0.0
2018-May-15 05:54N 35°31' E 139°44'0 0.0
2018-May-15 04:15N 35°31' E 139°44'0 0.0
2018-May-15 04:00N 35°31' E 139°44'3 5.2
2018-May-15 03:30N 35°30' E 139°48'510.2
2018-May-15 02:59N 35°30' E 139°54'510.5
2018-May-15 02:30N 35°30' E 140°00'2 0.5
2018-May-14 23:05N 35°30' E 140°02'0 0.5
2018-May-14 23:00N 35°30' E 140°02'2 2.8
2018-May-14 22:26N 35°31' E 140°01'0 0.1
2018-May-14 21:53N 35°31' E 140°01'0 0.0
2018-May-14 21:26N 35°31' E 140°01'0 0.0
2018-May-14 20:56N 35°31' E 140°01'0 0.0
2018-May-14 20:29N 35°31' E 140°01'0 0.0
2018-May-14 19:59N 35°31' E 140°01'0 0.0
2018-May-14 19:23N 35°31' E 140°01'0 0.0
2018-May-14 18:56N 35°31' E 140°01'0 0.1
2018-May-14 17:59N 35°31' E 140°01'0 0.0
2018-May-14 17:29N 35°31' E 140°01'0 0.0
2018-May-14 16:50N 35°31' E 140°01'0 0.0
2018-May-14 16:29N 35°31' E 140°01'0 0.1
2018-May-14 15:53N 35°31' E 140°01'0 0.0
2018-May-14 15:14N 35°31' E 140°01'0 0.0
2018-May-14 14:59N 35°31' E 140°01'0 0.0
2018-May-14 14:29N 35°31' E 140°01'0 0.0
2018-May-14 13:59N 35°31' E 140°01'0 0.0
2018-May-14 13:26N 35°31' E 140°01'0 0.0
2018-May-14 12:59N 35°31' E 140°01'0 0.0
2018-May-14 12:26N 35°31' E 140°01'0 0.0
2018-May-14 11:41N 35°31' E 140°01'0 0.0
2018-May-14 11:26N 35°31' E 140°01'0 0.0
2018-May-14 10:56N 35°31' E 140°01'0 0.0
2018-May-14 10:29N 35°31' E 140°01'0 0.0
2018-May-14 09:59N 35°31' E 140°01'0 0.0
2018-May-14 08:35N 35°31' E 140°01'0 0.5
2018-May-14 08:29N 35°31' E 140°01'0 0.1
2018-May-14 07:59N 35°31' E 140°01'0 0.0
2018-May-14 07:26N 35°31' E 140°01'1 2.3
2018-May-14 07:00N 35°32' E 140°02'3 0.9
2018-May-14 03:45N 35°33' E 140°05'0 0.0
2018-May-14 03:08N 35°33' E 140°05'0 3.2
2018-May-14 03:00N 35°33' E 140°05'4 1.1
2018-May-13 23:13N 35°30' E 140°02'1 5.1
2018-May-13 22:59N 35°30' E 140°01'2 4.1
2018-May-13 22:28N 35°32' E 140°00'510.3
2018-May-13 22:00N 35°37' E 139°59'3 0.7
2018-May-13 16:39N 35°41' E 139°59'0 0.0
2018-May-13 12:51N 35°41' E 139°59'0 0.0
2018-May-13 07:45N 35°41' E 139°59'1 2.7
2018-May-13 07:15N 35°39' E 139°59'311.4
2018-May-13 07:00N 35°36' E 139°59'6 8.6
2018-May-13 06:22N 35°31' E 139°58'3 4.2
2018-May-13 05:34N 35°28' E 140°01'0 0.1
2018-May-13 05:28N 35°28' E 140°01'0 0.0
2018-May-13 04:58N 35°28' E 140°01'0 0.0
2018-May-13 04:28N 35°28' E 140°01'0 0.0
2018-May-13 03:58N 35°28' E 140°01'0 0.0
2018-May-13 03:22N 35°28' E 140°01'0 0.2
2018-May-13 02:55N 35°28' E 140°01'1 0.3
2018-May-12 22:57N 35°30' E 140°02'1 2.2
2018-May-12 22:19N 35°30' E 140°00'0 0.0
2018-May-12 21:55N 35°30' E 140°00'0 0.0
2018-May-12 21:28N 35°30' E 140°00'0 0.0
2018-May-12 20:43N 35°30' E 140°00'0 0.0
2018-May-12 20:28N 35°30' E 140°00'0 0.0
2018-May-12 19:49N 35°30' E 140°00'0 0.0
2018-May-12 19:13N 35°30' E 140°00'0 0.0
2018-May-12 18:43N 35°30' E 140°00'0 0.0
2018-May-12 18:22N 35°30' E 140°00'0 0.0
2018-May-12 17:31N 35°30' E 140°00'0 0.0
2018-May-12 17:19N 35°30' E 140°00'0 0.0
2018-May-12 16:55N 35°30' E 140°00'0 0.0
2018-May-12 16:28N 35°30' E 140°00'0 0.0
2018-May-12 15:55N 35°30' E 140°00'0 0.0
2018-May-12 15:25N 35°30' E 140°00'0 0.0
2018-May-12 14:58N 35°30' E 140°00'0 0.0
2018-May-12 14:28N 35°30' E 140°00'0 0.0
2018-May-12 13:58N 35°30' E 140°00'0 0.0
2018-May-12 13:28N 35°30' E 140°00'0 0.0
2018-May-12 12:58N 35°30' E 140°00'0 0.0
2018-May-12 12:25N 35°30' E 140°00'0 0.0
2018-May-12 11:55N 35°30' E 140°00'0 0.0
2018-May-12 11:25N 35°30' E 140°00'0 0.0
2018-May-12 10:52N 35°30' E 140°00'0 0.0
2018-May-12 10:19N 35°30' E 140°00'0 0.0
2018-May-12 09:49N 35°30' E 140°00'0 0.0
2018-May-12 09:22N 35°30' E 140°00'0 0.0
2018-May-12 08:55N 35°30' E 140°00'2 6.0
2018-May-12 08:30N 35°30' E 139°57'611.3
2018-May-12 07:58N 35°30' E 139°50'4 9.2
2018-May-12 07:30N 35°31' E 139°45'0 0.3
2018-May-12 06:59N 35°31' E 139°44'0 0.0
2018-May-12 06:26N 35°31' E 139°44'0 0.0
2018-May-12 05:50N 35°31' E 139°44'0 0.0
2018-May-12 05:29N 35°31' E 139°44'0 0.0
2018-May-12 04:56N 35°31' E 139°44'0 0.0
2018-May-12 04:29N 35°31' E 139°44'0 0.9
2018-May-12 04:00N 35°31' E 139°45'4 7.2
2018-May-12 03:30N 35°30' E 139°49'4 7.5
2018-May-12 03:00N 35°31' E 139°54'4 8.3
2018-May-12 02:30N 35°31' E 139°59'3 0.8
2018-May-11 22:57N 35°30' E 140°02'1 2.6
2018-May-11 22:30N 35°30' E 140°01'0 0.0
2018-May-11 22:00N 35°30' E 140°01'0 0.0
2018-May-11 21:27N 35°30' E 140°01'0 0.1
2018-May-11 20:59N 35°30' E 140°01'510.4
2018-May-11 20:30N 35°29' E 139°55'510.8
2018-May-11 20:00N 35°26' E 139°49'510.8
2018-May-11 19:30N 35°22' E 139°45'5 9.8
2018-May-11 19:00N 35°17' E 139°46'510.6
2018-May-11 18:29N 35°11' E 139°47'510.8
2018-May-11 18:00N 35°06' E 139°45'611.5
2018-May-11 17:29N 35°02' E 139°40'3712.1
2018-May-11 14:25N 34°39' E 139°05'11510.7
2018-May-11 03:39N 34°48' E 136°45'211.7
2018-May-11 03:28N 34°50' E 136°44'511.5
2018-May-11 03:00N 34°55' E 136°42'3 5.7
2018-May-11 02:25N 34°58' E 136°39'0 0.0
2018-May-11 01:55N 34°58' E 136°39'0 0.0
2018-May-11 01:28N 34°58' E 136°39'0 0.0
2018-May-11 00:58N 34°58' E 136°39'0 0.0
2018-May-11 00:25N 34°58' E 136°39'0 0.0
2018-May-10 23:55N 34°58' E 136°39'2 4.4
2018-May-10 23:30N 34°57' E 136°41'4 7.0
2018-May-10 23:00N 34°54' E 136°43'4 7.9
2018-May-10 22:30N 34°50' E 136°45'5 9.3
2018-May-10 22:00N 34°46' E 136°48'510.3
2018-May-10 21:29N 34°42' E 136°51'97 9.6
2018-May-10 11:20N 34°35' E 138°49'5 9.0
2018-May-10 10:50N 34°36' E 138°55'4 9.3
2018-May-10 10:22N 34°38' E 138°59'4 9.6
2018-May-10 09:58N 34°41' E 139°02'710.4
2018-May-10 09:20N 34°46' E 139°07'2710.1
2018-May-10 06:38N 35°03' E 139°33'210.4
2018-May-10 06:25N 35°04' E 139°35'511.7
2018-May-10 05:58N 35°07' E 139°41'611.5
2018-May-10 05:29N 35°11' E 139°45'510.8
2018-May-10 05:00N 35°16' E 139°45'510.8
2018-May-10 04:30N 35°21' E 139°42'510.0
2018-May-10 03:59N 35°26' E 139°45'610.8
2018-May-10 03:28N 35°29' E 139°50'510.4
2018-May-10 03:00N 35°30' E 139°56'5 1.2
2018-May-09 23:07N 35°30' E 140°02'1 3.6
2018-May-09 22:59N 35°30' E 140°01'2 3.3
2018-May-09 22:30N 35°32' E 140°02'5 9.5
2018-May-09 22:00N 35°35' E 140°05'1 2.2
2018-May-09 21:28N 35°36' E 140°06'0 0.0
2018-May-09 20:58N 35°36' E 140°06'0 0.0
2018-May-09 20:31N 35°36' E 140°06'0 0.0
2018-May-09 19:58N 35°36' E 140°06'0 0.0
2018-May-09 19:31N 35°36' E 140°06'0 0.0
2018-May-09 18:58N 35°36' E 140°06'0 0.0
2018-May-09 18:28N 35°36' E 140°06'0 0.0
2018-May-09 18:01N 35°36' E 140°06'0 0.0
2018-May-09 17:31N 35°36' E 140°06'0 0.0
2018-May-09 17:01N 35°36' E 140°06'0 0.0
2018-May-09 16:28N 35°36' E 140°06'0 0.0
2018-May-09 15:58N 35°36' E 140°06'0 0.0
2018-May-09 15:31N 35°36' E 140°06'0 0.0
2018-May-09 14:58N 35°36' E 140°06'0 0.0
2018-May-09 14:28N 35°36' E 140°06'0 0.0
2018-May-09 13:58N 35°36' E 140°06'0 0.0
2018-May-09 13:28N 35°36' E 140°06'0 0.0
2018-May-09 12:58N 35°36' E 140°06'0 0.0
2018-May-09 12:28N 35°36' E 140°06'0 0.0
2018-May-09 12:01N 35°36' E 140°06'0 0.0
2018-May-09 11:31N 35°36' E 140°06'0 0.0
2018-May-09 10:58N 35°36' E 140°06'0 0.0
2018-May-09 10:28N 35°36' E 140°06'0 0.0
2018-May-09 09:58N 35°36' E 140°06'0 0.0
2018-May-09 09:28N 35°36' E 140°06'1 2.1
2018-May-09 09:01N 35°35' E 140°05'510.6
2018-May-09 08:30N 35°33' E 139°59'510.4
2018-May-09 08:00N 35°31' E 139°53'510.1
2018-May-09 07:29N 35°30' E 139°47'2 4.3
2018-May-09 06:58N 35°31' E 139°44'0 0.0
2018-May-09 06:22N 35°31' E 139°44'0 0.0
2018-May-09 05:58N 35°31' E 139°44'0 0.0
2018-May-09 05:28N 35°31' E 139°44'0 0.0
2018-May-09 04:52N 35°31' E 139°44'0 0.0
2018-May-09 04:28N 35°31' E 139°44'0 0.1
2018-May-09 03:57N 35°31' E 139°44'3 6.0
2018-May-09 03:30N 35°30' E 139°48'610.5
2018-May-09 02:55N 35°30' E 139°55'5 1.4
2018-May-08 22:58N 35°30' E 140°02'2 3.9
2018-May-08 22:30N 35°31' E 139°60'0 0.3
2018-May-08 21:52N 35°31' E 139°60'0 0.0
2018-May-08 21:28N 35°31' E 139°60'0 0.0
2018-May-08 20:58N 35°31' E 139°60'0 0.0
2018-May-08 20:28N 35°31' E 139°60'0 0.1
2018-May-08 19:46N 35°31' E 139°60'0 0.0
2018-May-08 19:28N 35°31' E 139°60'0 0.0
2018-May-08 18:49N 35°31' E 139°60'0 0.0
2018-May-08 18:10N 35°31' E 139°60'0 0.0
2018-May-08 17:40N 35°31' E 139°60'0 0.0
2018-May-08 17:22N 35°31' E 139°60'0 0.0
2018-May-08 16:58N 35°31' E 139°60'0 0.0
2018-May-08 16:10N 35°31' E 139°60'0 0.0
2018-May-08 15:46N 35°31' E 139°60'0 0.0
2018-May-08 11:40N 35°31' E 139°60'0 0.0
2018-May-08 08:12N 35°31' E 139°60'  

Dump ship's entire track history